• Bienvenue sur Pilotes Québec!
  • Bienvenue sur le site de Pilotes Québec, la nouvelle communauté des pilotes et aviateurs du Québec.
  • L'image de cette semaine nous vient de Denis Morissette!  La photo a été prise à Miguasha, en Gaspésie, lors d'un atterrissage par bon vent de travers et fort vent rabattant en finale.
  • Calendrier des activités
  • sujets récents au forum...
  • Les nouvelles en bref...

Connexion


J'ai oublié mon mot de passe
Renvoyer l'e-mail de confirmation
 

Publicité

Vous aimeriez afficher une publicité pour joindre la communauté des pilotes professionnels et privé du Québec?  Cliquez ici pour en savoir plus!

Conditions actuelles

Click for Quebec, Quebec Forecast

METAR - Québec


2016/07/28 16:00
CYQB 281600Z VRB02KT 25SM BKN030 BKN090 BKN190 24/18 A2987 RMK SC5AC1CI1 SLP117 DENSITY ALT 1300FT

TAF - Québec


2016/07/28 12:42
TAF CYQB 281138Z 2812/2912 36005KT P6SM FEW015 BKN200
TEMPO 2812/2813 BKN015 PROB30 2812/2813 1SM BR BKN004
FM281300 VRB03KT P6SM BKN180
BECMG 2816/2818 24010KT
FM281800 24010KT P6SM FEW050
TEMPO 2819/2824 P6SM -SHRA BKN050
FM290100 34005KT P6SM SCT060
RMK NXT FCST BY 281800Z